Time;durP1;ratioP1;P1;durP2;ratioP2;P2;SDS_P1;SDS_P2;PMS_P1;PMS_P2;Temp;Humidity;BMP_temperature;BMP_pressure;BME280_temperature;BME280_humidity;BME280_pressure;Samples;Min_cycle;Max_cycle;Signal;HPM_P1;HPM_P2
2022/06/16 00:00:10;;;;;;;12.55;8.30;;;13.20;99.90;;;;;;5094110;28;20075;-69
2022/06/16 00:02:45;;;;;;;12.07;8.73;;;13.30;99.90;;;;;;5094508;28;20042;-69
2022/06/16 00:05:12;;;;;;;11.77;9.20;;;13.20;99.90;;;;;;5111739;28;20082;-69
2022/06/16 00:07:39;;;;;;;14.15;8.63;;;13.10;99.90;;;;;;5112419;28;20415;-69
2022/06/16 00:10:06;;;;;;;14.85;9.23;;;13.10;99.90;;;;;;5094257;28;20127;-69
2022/06/16 00:12:32;;;;;;;13.38;9.73;;;13.10;99.90;;;;;;5094389;28;20039;-69
2022/06/16 00:14:58;;;;;;;15.65;9.43;;;13.10;99.90;;;;;;5094296;28;20043;-69
2022/06/16 00:17:25;;;;;;;12.68;9.52;;;13.00;99.90;;;;;;5094323;28;20169;-69
2022/06/16 00:19:51;;;;;;;10.85;9.18;;;13.00;99.90;;;;;;5112197;28;20499;-69
2022/06/16 00:22:17;;;;;;;15.10;9.75;;;13.00;99.90;;;;;;5077163;28;20055;-69
2022/06/16 00:24:43;;;;;;;12.23;9.98;;;12.90;99.90;;;;;;5093881;28;20043;-69
2022/06/16 00:27:08;;;;;;;15.63;9.82;;;12.90;99.90;;;;;;5091781;28;20499;-69
2022/06/16 00:29:34;;;;;;;13.35;9.88;;;12.80;99.90;;;;;;5112231;28;20046;-69
2022/06/16 00:32:01;;;;;;;16.33;10.60;;;12.60;99.90;;;;;;5112163;28;20111;-69
2022/06/16 00:34:27;;;;;;;15.10;10.65;;;12.60;99.90;;;;;;5093738;28;20039;-69
2022/06/16 00:36:53;;;;;;;14.95;10.10;;;12.50;99.90;;;;;;5094135;28;20066;-69
2022/06/16 00:39:20;;;;;;;16.15;10.48;;;12.50;99.90;;;;;;5112187;28;20088;-69
2022/06/16 00:41:46;;;;;;;13.90;10.38;;;12.40;99.90;;;;;;5094162;28;20047;-69
2022/06/16 00:44:42;;;;;;;12.48;10.73;;;12.50;99.90;;;;;;5093852;28;20080;-69
2022/06/16 00:47:08;;;;;;;12.50;10.38;;;12.40;99.90;;;;;;5110254;28;20140;-69
2022/06/16 00:49:36;;;;;;;15.60;11.65;;;12.40;99.90;;;;;;5111908;28;20081;-69
2022/06/16 00:52:09;;;;;;;16.30;11.05;;;12.30;99.90;;;;;;5093765;28;20032;-69
2022/06/16 00:54:42;;;;;;;17.13;12.02;;;12.30;99.90;;;;;;5112018;28;20040;-69
2022/06/16 00:57:13;;;;;;;19.73;11.82;;;12.30;99.90;;;;;;5091238;28;20047;-69
2022/06/16 00:59:40;;;;;;;15.07;11.80;;;12.20;99.90;;;;;;5093818;28;20108;-69
2022/06/16 01:02:08;;;;;;;17.20;12.80;;;12.20;99.90;;;;;;5111763;28;20044;-69
2022/06/16 01:04:53;;;;;;;15.43;11.90;;;12.20;99.90;;;;;;5112095;28;20092;-69
2022/06/16 01:07:32;;;;;;;15.10;11.98;;;12.20;99.90;;;;;;5111722;28;20040;-69
2022/06/16 01:09:59;;;;;;;19.67;12.35;;;12.20;99.90;;;;;;5093621;28;20097;-69
2022/06/16 01:15:45;;;;;;;16.63;12.35;;;12.20;99.90;;;;;;5112263;28;20043;-69
2022/06/16 01:18:39;;;;;;;16.63;11.45;;;12.20;99.90;;;;;;5097448;28;20031;-69
2022/06/16 01:21:14;;;;;;;16.80;12.30;;;12.10;99.90;;;;;;5115437;28;20108;-69
2022/06/16 01:24:09;;;;;;;14.15;10.98;;;12.20;99.90;;;;;;5097183;28;20047;-69
2022/06/16 01:27:02;;;;;;;15.43;11.52;;;12.20;99.90;;;;;;5080188;28;20075;-69
2022/06/16 01:29:44;;;;;;;18.45;12.45;;;12.20;99.90;;;;;;5096998;28;20043;-69
2022/06/16 01:32:28;;;;;;;17.88;12.25;;;12.20;99.90;;;;;;5097022;28;20040;-69
2022/06/16 01:35:18;;;;;;;18.50;11.80;;;12.20;99.90;;;;;;5097034;28;20047;-69
2022/06/16 01:37:44;;;;;;;17.90;12.90;;;12.30;99.90;;;;;;5097122;28;20043;-69
2022/06/16 01:40:36;;;;;;;17.55;12.20;;;12.20;99.90;;;;;;5096978;28;20104;-69
2022/06/16 01:43:20;;;;;;;15.40;13.05;;;12.20;99.90;;;;;;5097200;28;20194;-69
2022/06/16 01:45:51;;;;;;;18.10;12.32;;;12.10;99.90;;;;;;5096372;28;20138;-69
2022/06/16 01:48:20;;;;;;;18.83;12.95;;;12.20;99.90;;;;;;5096685;28;20046;-69
2022/06/16 01:51:10;;;;;;;16.20;11.90;;;12.20;99.90;;;;;;5079680;28;20050;-69
2022/06/16 01:53:39;;;;;;;;;;;12.30;99.90;;;;;;5097136;28;20044;-69
2022/06/16 01:56:26;;;;;;;16.13;13.05;;;12.30;99.90;;;;;;5096356;28;19923;-69
2022/06/16 01:59:06;;;;;;;18.33;13.30;;;12.30;99.90;;;;;;5112318;28;20479;-69
2022/06/16 02:01:40;;;;;;;15.95;11.68;;;12.30;99.90;;;;;;5114784;28;20043;-69
2022/06/16 02:04:31;;;;;;;20.15;12.35;;;12.30;99.90;;;;;;5096342;28;20040;-69
2022/06/16 02:07:04;;;;;;;17.25;12.73;;;12.30;99.90;;;;;;5084983;28;20404;-69
2022/06/16 02:09:42;;;;;;;18.35;13.07;;;12.30;99.90;;;;;;5079424;28;20036;-69
2022/06/16 02:12:55;;;;;;;16.50;12.57;;;12.30;99.90;;;;;;5114496;28;20165;-69
2022/06/16 02:14:59;;;;;;;;;;;12.20;99.90;;;;;;5114699;28;20040;-69
2022/06/16 02:17:25;;;;;;;16.65;12.93;;;12.20;99.90;;;;;;5114570;28;20305;-69
2022/06/16 02:19:50;;;;;;;14.52;11.30;;;12.10;99.90;;;;;;5114510;28;20176;-69
2022/06/16 02:22:16;;;;;;;15.65;11.50;;;12.10;99.90;;;;;;5095831;28;20400;-69
2022/06/16 02:24:42;;;;;;;16.67;12.45;;;12.00;99.90;;;;;;5096166;28;20079;-69
2022/06/16 02:27:08;;;;;;;19.95;11.55;;;12.00;99.90;;;;;;5092787;28;20044;-69
2022/06/16 02:29:37;;;;;;;17.30;12.23;;;12.00;99.90;;;;;;5095627;28;20046;-69
2022/06/16 02:32:46;;;;;;;16.60;12.82;;;11.90;99.90;;;;;;5095727;28;20582;-69
2022/06/16 02:35:36;;;;;;;18.00;13.05;;;12.00;99.90;;;;;;5079109;28;20093;-69
2022/06/16 02:38:32;;;;;;;15.43;12.93;;;11.90;99.90;;;;;;5095875;28;20051;-69
2022/06/16 02:41:35;;;;;;;19.45;13.15;;;11.90;99.90;;;;;;5087033;28;20574;-69
2022/06/16 02:44:19;;;;;;;17.15;13.82;;;11.90;99.90;;;;;;5113650;28;20479;-69
2022/06/16 02:46:54;;;;;;;19.95;14.07;;;11.90;99.90;;;;;;5113604;28;20059;-69
2022/06/16 02:49:19;;;;;;;20.15;13.52;;;11.90;99.90;;;;;;5095764;28;20396;-69
2022/06/16 02:52:06;;;;;;;21.38;14.15;;;11.80;99.90;;;;;;5095275;28;20156;-69
2022/06/16 02:54:38;;;;;;;16.08;12.43;;;11.80;99.90;;;;;;5113526;28;20051;-69
2022/06/16 02:57:26;;;;;;;20.73;13.85;;;11.70;99.90;;;;;;5093062;28;20373;-69
2022/06/16 02:59:59;;;;;;;17.73;13.23;;;11.60;99.90;;;;;;5113709;28;20079;-69
2022/06/16 03:02:25;;;;;;;17.52;12.45;;;11.60;99.90;;;;;;5095110;28;20483;-69
2022/06/16 03:04:56;;;;;;;16.80;13.70;;;11.50;99.90;;;;;;5113411;28;20043;-69
2022/06/16 03:07:22;;;;;;;;;;;11.40;99.90;;;;;;5095399;28;20496;-69
2022/06/16 03:09:47;;;;;;;16.95;13.95;;;11.40;99.90;;;;;;5113596;28;19926;-69
2022/06/16 03:12:14;;;;;;;17.98;13.77;;;11.30;99.90;;;;;;5113320;28;20040;-69
2022/06/16 03:14:40;;;;;;;17.67;14.80;;;11.30;99.90;;;;;;5113359;28;20272;-69
2022/06/16 03:17:07;;;;;;;20.67;15.13;;;11.30;99.90;;;;;;5113185;28;20088;-69
2022/06/16 03:19:34;;;;;;;23.15;15.90;;;11.20;99.90;;;;;;5095061;28;20070;-69
2022/06/16 03:21:59;;;;;;;44.38;12.10;;;11.20;99.90;;;;;;5112966;28;20126;-69
2022/06/16 03:24:25;;;;;;;15.15;9.98;;;11.10;99.90;;;;;;5094829;28;20126;-69
2022/06/16 03:26:52;;;;;;;12.25;8.07;;;11.10;99.90;;;;;;5111065;28;20047;-69
2022/06/16 03:29:17;;;;;;;18.05;12.82;;;10.90;99.90;;;;;;5094980;28;20040;-69
2022/06/16 03:31:43;;;;;;;14.00;9.35;;;10.80;99.90;;;;;;5113040;28;20039;-69
2022/06/16 03:34:09;;;;;;;19.67;12.65;;;10.80;99.90;;;;;;5094663;28;20059;-69
2022/06/16 03:36:37;;;;;;;14.57;10.90;;;10.80;99.90;;;;;;5077649;28;20047;-69
2022/06/16 03:39:04;;;;;;;24.38;15.05;;;10.70;99.90;;;;;;5112137;28;20039;-69
2022/06/16 03:41:31;;;;;;;14.30;11.52;;;10.70;99.90;;;;;;5112740;28;20035;-69
2022/06/16 03:43:57;;;;;;;22.77;14.45;;;10.70;99.90;;;;;;5094430;28;20514;-69
2022/06/16 03:46:24;;;;;;;21.88;15.73;;;10.60;99.90;;;;;;5094380;28;20061;-69
2022/06/16 03:48:50;;;;;;;17.42;13.50;;;10.60;99.90;;;;;;5113749;28;20042;-69
2022/06/16 03:51:17;;;;;;;21.83;16.58;;;10.70;99.90;;;;;;5094344;28;20036;-69
2022/06/16 03:53:43;;;;;;;21.60;16.08;;;10.80;99.90;;;;;;5094394;28;20407;-69
2022/06/16 03:56:10;;;;;;;21.35;16.27;;;10.90;99.90;;;;;;5094422;28;20047;-69
2022/06/16 03:58:36;;;;;;;21.35;16.10;;;11.00;99.90;;;;;;5092292;28;20047;-69
2022/06/16 04:01:02;;;;;;;22.65;16.83;;;11.00;99.90;;;;;;5094626;28;20035;-69
2022/06/16 04:06:13;;;;;;;22.88;15.75;;;11.10;99.90;;;;;;5112612;28;20105;-69
2022/06/16 04:08:40;;;;;;;26.92;18.25;;;11.20;99.90;;;;;;5077504;28;20035;-69
2022/06/16 04:13:51;;;;;;;21.02;15.73;;;11.40;99.90;;;;;;5112289;28;20122;-69
2022/06/16 04:16:18;;;;;;;23.33;16.00;;;11.40;99.90;;;;;;5112670;28;20131;-69
2022/06/16 04:18:44;;;;;;;22.70;16.48;;;11.50;99.90;;;;;;5094261;28;20387;-69
2022/06/16 04:21:10;;;;;;;23.42;18.10;;;11.60;99.90;;;;;;5074892;28;20040;-69
2022/06/16 04:23:37;;;;;;;19.40;17.17;;;11.70;99.90;;;;;;5093890;28;20514;-69
2022/06/16 04:26:04;;;;;;;22.67;17.50;;;11.70;99.90;;;;;;5093748;28;20504;-69
2022/06/16 04:28:30;;;;;;;22.23;15.48;;;11.80;99.90;;;;;;5091344;28;20139;-69
2022/06/16 04:30:56;;;;;;;20.83;16.45;;;11.80;99.90;;;;;;5077144;28;20114;-69
2022/06/16 04:33:23;;;;;;;22.20;15.20;;;11.90;99.90;;;;;;5094025;28;20042;-69
2022/06/16 04:35:49;;;;;;;25.58;15.50;;;11.90;99.90;;;;;;5113337;28;20412;-69
2022/06/16 04:38:15;;;;;;;20.67;16.40;;;12.00;99.90;;;;;;5112204;28;20082;-69
2022/06/16 04:40:40;;;;;;;26.85;17.65;;;12.00;99.90;;;;;;5094160;28;20044;-69
2022/06/16 04:43:06;;;;;;;20.70;15.55;;;12.10;99.90;;;;;;5093903;28;20039;-69
2022/06/16 04:45:32;;;;;;;20.77;15.10;;;12.20;99.90;;;;;;5093715;28;20512;-69
2022/06/16 04:47:58;;;;;;;21.65;15.57;;;12.20;99.90;;;;;;5112803;28;20063;-70
2022/06/16 04:50:24;;;;;;;21.58;15.63;;;12.30;99.90;;;;;;5113461;28;20032;-70
2022/06/16 04:52:50;;;;;;;20.00;15.63;;;12.40;99.90;;;;;;5098887;28;20032;-69
2022/06/16 04:55:17;;;;;;;20.88;15.98;;;12.50;99.90;;;;;;5098918;28;20486;-69
2022/06/16 04:57:42;;;;;;;25.15;15.77;;;12.50;99.90;;;;;;5096618;28;20506;-69
2022/06/16 05:00:13;;;;;;;16.60;14.80;;;12.60;99.90;;;;;;5117065;28;20044;-69
2022/06/16 05:02:39;;;;;;;;;;;12.60;99.90;;;;;;5098899;28;20044;-69
2022/06/16 05:05:05;;;;;;;21.25;14.68;;;12.70;99.90;;;;;;5116787;28;19915;-69
2022/06/16 05:07:31;;;;;;;20.73;14.05;;;12.70;99.90;;;;;;5116729;28;20120;-69
2022/06/16 05:09:57;;;;;;;17.27;13.88;;;12.70;99.90;;;;;;5098385;28;20444;-69
2022/06/16 05:12:23;;;;;;;18.92;14.32;;;12.80;99.90;;;;;;5098471;28;20040;-70
2022/06/16 05:14:49;;;;;;;17.25;14.30;;;12.90;99.90;;;;;;5098523;28;20043;-70
2022/06/16 05:17:15;;;;;;;19.58;13.75;;;13.00;99.90;;;;;;5116527;28;20043;-70
2022/06/16 05:19:41;;;;;;;19.48;13.85;;;13.10;99.90;;;;;;5098155;28;20104;-70
2022/06/16 05:22:07;;;;;;;17.48;13.00;;;13.20;99.90;;;;;;5098122;28;20040;-70
2022/06/16 05:24:33;;;;;;;21.83;15.35;;;13.30;99.90;;;;;;5116460;28;20127;-70
2022/06/16 05:27:04;;;;;;;19.50;13.73;;;13.40;99.90;;;;;;5095963;28;20036;-70
2022/06/16 05:29:36;;;;;;;20.85;14.75;;;13.40;99.90;;;;;;5098156;28;20376;-70
2022/06/16 05:32:04;;;;;;;23.65;13.63;;;13.50;99.90;;;;;;5098204;28;20147;-70
2022/06/16 05:34:30;;;;;;;16.40;11.88;;;13.50;99.90;;;;;;5116229;28;20118;-70
2022/06/16 05:36:56;;;;;;;15.57;11.88;;;13.50;99.90;;;;;;5116094;28;20122;-70
2022/06/16 05:39:21;;;;;;;17.98;13.15;;;13.60;99.90;;;;;;5097682;28;20105;-70
2022/06/16 05:41:48;;;;;;;14.65;11.13;;;13.70;99.90;;;;;;5080729;28;20047;-70
2022/06/16 05:44:13;;;;;;;17.13;12.30;;;13.80;99.90;;;;;;5115498;28;20048;-70
2022/06/16 05:46:40;;;;;;;15.63;10.65;;;14.00;99.90;;;;;;5116213;28;20044;-70
2022/06/16 05:49:06;;;;;;;18.33;12.15;;;14.10;99.90;;;;;;5115747;28;20071;-71
2022/06/16 05:51:32;;;;;;;17.10;11.10;;;14.20;99.90;;;;;;5097497;28;20040;-71
2022/06/16 05:53:58;;;;;;;14.95;10.40;;;14.30;99.90;;;;;;5097405;28;20046;-71
2022/06/16 05:56:24;;;;;;;13.00;9.73;;;14.50;99.90;;;;;;5115826;28;20031;-70
2022/06/16 05:58:52;;;;;;;14.35;11.00;;;14.60;99.90;;;;;;5095259;28;20035;-70
2022/06/16 06:01:18;;;;;;;17.83;11.65;;;14.60;99.90;;;;;;5097278;28;20036;-70
2022/06/16 06:03:44;;;;;;;15.23;8.98;;;14.70;99.90;;;;;;5114617;28;20050;-70
2022/06/16 06:06:11;;;;;;;13.48;8.98;;;14.90;99.90;;;;;;5115558;28;20040;-70
2022/06/16 06:17:05;;;;;;;12.10;9.07;;;15.50;99.90;;;;;;5097378;28;20044;-71
2022/06/16 06:19:31;;;;;;;11.45;8.93;;;15.70;99.90;;;;;;5080275;28;20092;-71
2022/06/16 06:22:06;;;;;;;12.90;8.13;;;15.90;99.90;;;;;;5097107;28;20043;-71
2022/06/16 06:24:38;;;;;;;13.85;7.43;;;16.10;99.90;;;;;;5097129;28;20051;-71
2022/06/16 06:27:29;;;;;;;9.65;6.60;;;16.30;99.90;;;;;;5095427;28;20075;-71
2022/06/16 06:29:55;;;;;;;8.48;5.65;;;16.50;99.90;;;;;;5097323;28;20047;-71
2022/06/16 06:32:22;;;;;;;8.95;5.78;;;16.70;99.90;;;;;;5097284;28;20036;-71
2022/06/16 06:34:48;;;;;;;7.88;4.18;;;17.00;99.90;;;;;;5080286;28;20042;-71
2022/06/16 06:37:18;;;;;;;5.07;3.00;;;17.30;99.90;;;;;;5096828;28;20486;-71
2022/06/16 06:39:44;;;;;;;8.52;3.42;;;17.50;99.90;;;;;;5114800;27;20035;-71
2022/06/16 06:42:10;;;;;;;7.05;3.22;;;17.70;99.90;;;;;;5096875;28;20039;-71
2022/06/16 06:44:36;;;;;;;6.95;3.47;;;17.90;99.90;;;;;;5096602;28;20062;-71
2022/06/16 06:47:03;;;;;;;6.15;3.17;;;18.20;99.90;;;;;;5115078;28;20055;-71
2022/06/16 06:49:29;;;;;;;6.85;3.30;;;18.30;99.90;;;;;;5096706;28;20039;-71
2022/06/16 06:51:55;;;;;;;5.13;3.35;;;18.50;99.90;;;;;;5114846;28;20399;-71
2022/06/16 06:54:21;;;;;;;7.15;3.47;;;18.60;99.90;;;;;;5114715;28;20036;-71
2022/06/16 06:56:49;;;;;;;6.32;3.60;;;18.80;99.90;;;;;;5096392;28;20093;-72
2022/06/16 06:59:18;;;;;;;8.57;3.63;;;19.00;99.90;;;;;;5094852;28;20031;-72
2022/06/16 07:01:49;;;;;;;5.53;3.22;;;19.20;99.90;;;;;;5114847;28;20039;-72
2022/06/16 07:04:16;;;;;;;6.97;3.05;;;19.20;99.90;;;;;;5079475;28;20118;-72
2022/06/16 07:06:43;;;;;;;8.40;3.38;;;19.40;99.90;;;;;;5114499;28;20168;-72
2022/06/16 07:09:14;;;;;;;4.03;2.83;;;19.60;99.90;;;;;;5079430;28;20388;-72
2022/06/16 07:11:41;;;;;;;6.57;2.78;;;19.60;99.90;;;;;;5114500;28;20043;-72
2022/06/16 07:14:07;;;;;;;5.43;2.55;;;19.50;99.90;;;;;;5095743;28;20089;-71
2022/06/16 07:16:34;;;;;;;4.07;2.90;;;19.40;99.90;;;;;;5114449;28;20123;-72
2022/06/16 07:19:00;;;;;;;5.65;2.88;;;19.50;99.90;;;;;;5114218;28;20043;-72
2022/06/16 07:21:26;;;;;;;5.53;2.55;;;19.80;99.90;;;;;;5114194;28;20039;-72
2022/06/16 07:23:53;;;;;;;4.32;2.20;;;20.10;99.90;;;;;;5095823;28;20047;-72
2022/06/16 07:26:19;;;;;;;4.68;2.35;;;20.50;99.90;;;;;;5095871;28;20043;-72
2022/06/16 07:28:47;;;;;;;4.75;2.20;;;20.60;99.90;;;;;;5093590;28;20043;-72
2022/06/16 07:31:13;;;;;;;4.63;1.65;;;20.80;99.90;;;;;;5079109;28;20031;-72
2022/06/16 07:33:39;;;;;;;5.30;2.10;;;20.70;99.90;;;;;;5095975;28;20165;-72
2022/06/16 07:36:06;;;;;;;3.90;1.52;;;20.60;99.90;;;;;;5095883;28;20445;-73
2022/06/16 07:38:32;;;;;;;2.35;1.33;;;20.80;99.90;;;;;;5095289;28;20114;-72
2022/06/16 07:43:42;;;;;;;3.47;1.20;;;20.90;99.90;;;;;;5095542;28;20511;-72
2022/06/16 07:46:08;;;;;;;4.57;1.33;;;20.80;99.90;;;;;;5113245;28;20196;-72
2022/06/16 07:48:34;;;;;;;3.58;1.45;;;21.00;99.90;;;;;;5095273;28;20043;-73
2022/06/16 07:51:00;;;;;;;4.13;1.27;;;21.30;99.90;;;;;;5078405;28;20187;-72
2022/06/16 07:53:26;;;;;;;4.70;1.25;;;21.50;99.90;;;;;;5095516;28;20689;-72
2022/06/16 07:55:52;;;;;;;4.32;1.42;;;21.80;99.90;;;;;;5095608;28;20075;-73
2022/06/16 07:58:17;;;;;;;3.95;1.40;;;22.10;99.90;;;;;;5093241;28;20058;-74
2022/06/16 08:00:43;;;;;;;4.72;1.45;;;22.30;98.90;;;;;;5113418;28;20046;-73
2022/06/16 08:03:09;;;;;;;4.20;1.63;;;22.40;98.40;;;;;;5113501;28;20040;-73
2022/06/16 08:05:35;;;;;;;4.43;2.47;;;22.50;97.50;;;;;;5113377;28;20032;-74
2022/06/16 08:08:01;;;;;;;4.47;1.48;;;22.50;97.10;;;;;;5095169;28;20032;-73
2022/06/16 08:10:29;;;;;;;7.78;1.40;;;22.40;97.10;;;;;;5113288;28;20369;-74
2022/06/16 08:12:56;;;;;;;3.47;1.42;;;22.50;96.70;;;;;;5095137;28;20119;-72
2022/06/16 08:15:22;;;;;;;3.88;1.40;;;22.60;97.60;;;;;;5113310;28;20487;-72
2022/06/16 08:17:51;;;;;;;3.88;1.85;;;22.80;95.30;;;;;;5113359;28;20127;-71
2022/06/16 08:20:17;;;;;;;3.20;1.45;;;22.70;95.30;;;;;;5113190;28;20044;-72
2022/06/16 08:22:43;;;;;;;6.72;2.22;;;22.60;95.80;;;;;;5095104;28;20476;-75
2022/06/16 08:25:12;;;;;;;3.88;1.60;;;22.80;96.50;;;;;;5095357;28;20425;-74
2022/06/16 08:27:40;;;;;;;6.47;2.10;;;23.00;95.60;;;;;;5097232;28;20052;-71
2022/06/16 08:30:13;;;;;;;4.10;1.80;;;23.00;95.00;;;;;;5117721;28;20496;-75
2022/06/16 08:32:40;;;;;;;3.80;1.58;;;22.90;94.40;;;;;;5099375;28;20036;-70
2022/06/16 08:35:06;;;;;;;4.47;1.65;;;22.80;93.80;;;;;;5117601;28;20040;-70
2022/06/16 08:37:32;;;;;;;8.77;2.15;;;22.70;94.70;;;;;;5117572;28;20084;-74
2022/06/16 08:39:58;;;;;;;4.38;1.63;;;22.80;94.00;;;;;;5099489;28;20384;-72
2022/06/16 08:42:36;;;;;;;4.28;1.65;;;23.00;93.90;;;;;;5099313;28;20050;-73
2022/06/16 08:45:27;;;;;;;4.90;2.28;;;23.20;93.40;;;;;;5081846;28;20090;-72
2022/06/16 08:48:23;;;;;;;4.45;1.88;;;22.90;93.00;;;;;;5098849;28;20050;-72
2022/06/16 08:51:02;;;;;;;3.05;1.67;;;22.80;93.10;;;;;;5099045;28;20143;-73
2022/06/16 08:54:00;;;;;;;4.28;2.15;;;22.80;93.60;;;;;;5116886;28;20381;-72
2022/06/16 08:56:46;;;;;;;4.70;2.40;;;22.90;92.90;;;;;;5098561;28;20096;-76
2022/06/16 08:59:34;;;;;;;4.20;1.90;;;23.20;93.50;;;;;;5097054;28;20044;-74
2022/06/16 09:02:11;;;;;;;4.10;2.50;;;23.50;92.10;;;;;;5098413;28;20052;-72
2022/06/16 09:04:41;;;;;;;5.05;2.42;;;23.80;91.30;;;;;;5098840;28;20038;-72
2022/06/16 09:07:44;;;;;;;7.00;2.45;;;23.80;88.10;;;;;;5098359;28;20044;-72
2022/06/16 09:10:38;;;;;;;3.72;2.15;;;23.80;90.30;;;;;;5116763;28;20036;-72
2022/06/16 09:13:25;;;;;;;6.30;2.03;;;23.90;90.90;;;;;;5116661;28;20044;-72
2022/06/16 09:15:54;;;;;;;4.20;2.20;;;24.00;90.50;;;;;;5098595;28;20179;-73
2022/06/16 09:18:44;;;;;;;4.27;2.57;;;24.40;90.00;;;;;;5081795;28;20035;-75
2022/06/16 09:21:25;;;;;;;4.15;2.13;;;24.70;87.10;;;;;;5098142;28;20043;-74
2022/06/16 09:24:05;;;;;;;3.35;2.20;;;24.60;85.80;;;;;;5098246;28;20035;-73
2022/06/16 09:26:41;;;;;;;3.92;1.92;;;24.50;87.40;;;;;;5098242;28;20035;-71
2022/06/16 09:29:17;;;;;;;4.07;2.53;;;24.50;86.20;;;;;;5114256;28;20042;-75
2022/06/16 09:31:49;;;;;;;4.63;2.42;;;24.60;86.50;;;;;;5116306;28;20039;-75
2022/06/16 09:34:34;;;;;;;6.70;2.75;;;24.90;86.80;;;;;;5116471;28;20360;-77
2022/06/16 09:37:10;;;;;;;5.93;2.50;;;25.20;83.20;;;;;;5097947;28;20046;-73
2022/06/16 09:39:43;;;;;;;3.45;1.95;;;25.10;79.30;;;;;;5115393;27;20052;-74
2022/06/16 09:42:38;;;;;;;6.20;2.30;;;25.10;78.70;;;;;;5097893;28;20035;-70
2022/06/16 09:45:13;;;;;;;5.03;2.55;;;25.20;81.70;;;;;;5096934;28;20127;-76
2022/06/16 09:47:53;;;;;;;5.93;2.45;;;25.40;79.10;;;;;;5080838;28;20134;-74
2022/06/16 09:50:26;;;;;;;4.88;2.22;;;25.50;77.70;;;;;;5098188;28;20138;-74
2022/06/16 09:53:02;;;;;;;4.25;2.50;;;25.50;78.30;;;;;;5097709;28;20040;-78
2022/06/16 09:55:41;;;;;;;3.83;2.33;;;25.70;77.40;;;;;;5097710;28;20040;-75
2022/06/16 09:58:10;;;;;;;;;;;25.80;73.40;;;;;;5095809;28;20096;-75
2022/06/16 10:00:36;;;;;;;3.90;2.60;;;25.70;76.50;;;;;;5097561;28;20019;-74
2022/06/16 10:03:17;;;;;;;6.15;3.25;;;25.70;75.00;;;;;;5097394;28;20039;-71
2022/06/16 10:06:20;;;;;;;5.25;3.22;;;25.70;74.10;;;;;;5115505;28;20048;-69
2022/06/16 10:09:16;;;;;;;6.78;3.53;;;25.60;73.90;;;;;;5115530;28;20487;-68
2022/06/16 10:12:02;;;;;;;4.88;3.13;;;25.30;74.50;;;;;;5097208;28;20122;-69
2022/06/16 10:14:34;;;;;;;8.30;3.88;;;25.10;72.30;;;;;;5097066;28;20039;-70
2022/06/16 10:17:05;;;;;;;5.78;3.30;;;25.10;74.10;;;;;;5115231;28;20505;-68
2022/06/16 10:19:43;;;;;;;5.45;2.92;;;25.30;74.00;;;;;;5097429;28;20039;-70
2022/06/16 10:22:09;;;;;;;6.38;3.03;;;25.40;75.60;;;;;;5096993;28;20044;-67
2022/06/16 10:24:39;;;;;;;5.35;4.05;;;25.60;75.20;;;;;;5115310;28;20051;-69
2022/06/16 10:27:09;;;;;;;7.38;3.88;;;25.60;70.80;;;;;;5112847;28;20151;-69
2022/06/16 10:29:35;;;;;;;5.90;2.97;;;25.40;71.20;;;;;;5097058;28;20032;-70
2022/06/16 10:32:03;;;;;;;6.07;3.30;;;25.50;75.70;;;;;;5096899;28;20035;-69
2022/06/16 10:34:38;;;;;;;3.63;2.85;;;25.70;73.70;;;;;;5114857;28;20467;-68
2022/06/16 10:37:10;;;;;;;4.65;3.70;;;25.90;70.80;;;;;;5096876;28;20040;-68
2022/06/16 10:39:43;;;;;;;5.38;3.03;;;25.80;69.10;;;;;;5096708;28;20040;-69
2022/06/16 10:42:26;;;;;;;6.82;2.97;;;25.70;71.10;;;;;;5096679;28;20051;-68
2022/06/16 10:45:06;;;;;;;4.93;3.17;;;25.70;72.60;;;;;;5093028;28;20048;-69
2022/06/16 10:47:33;;;;;;;;;;;25.60;68.00;;;;;;5093474;28;20087;-68
2022/06/16 10:50:00;;;;;;;5.95;3.50;;;25.30;70.60;;;;;;5092814;28;19995;-69
2022/06/16 10:52:32;;;;;;;6.00;2.70;;;25.20;69.80;;;;;;5094145;28;20027;-69
2022/06/16 10:55:05;;;;;;;4.97;2.92;;;25.50;71.20;;;;;;5076158;28;20115;-69
2022/06/16 10:57:40;;;;;;;5.72;3.67;;;25.80;72.20;;;;;;5092074;28;20086;-69
2022/06/16 11:00:12;;;;;;;4.22;2.95;;;26.20;73.00;;;;;;5094348;28;20434;-69
2022/06/16 11:03:09;;;;;;;6.38;2.53;;;26.50;71.00;;;;;;5092763;28;20055;-69
2022/06/16 11:05:48;;;;;;;6.93;2.83;;;26.80;69.30;;;;;;5092804;28;20075;-69
2022/06/16 11:08:14;;;;;;;5.82;3.80;;;26.90;67.70;;;;;;5092756;28;20101;-69
2022/06/16 11:10:50;;;;;;;5.82;2.97;;;26.50;63.50;;;;;;5094058;28;20075;-70
2022/06/16 11:13:20;;;;;;;5.93;3.20;;;26.10;67.30;;;;;;5092448;28;20040;-68
2022/06/16 11:15:51;;;;;;;4.07;2.83;;;26.10;67.80;;;;;;5094145;28;20036;-68
2022/06/16 11:18:22;;;;;;;4.18;2.50;;;26.10;70.00;;;;;;5092860;28;20050;-69
2022/06/16 11:20:51;;;;;;;5.35;2.40;;;26.00;70.90;;;;;;5093947;28;20123;-70
2022/06/16 11:23:30;;;;;;;4.82;2.63;;;26.30;72.40;;;;;;5092260;28;20036;-70
2022/06/16 11:26:09;;;;;;;5.68;2.95;;;26.60;70.30;;;;;;5092290;28;20032;-68
2022/06/16 11:28:47;;;;;;;4.68;2.80;;;26.70;65.40;;;;;;5090121;28;20032;-68
2022/06/16 11:31:33;;;;;;;4.93;2.90;;;26.50;65.40;;;;;;5092284;28;20047;-69
2022/06/16 11:34:17;;;;;;;3.65;2.72;;;26.40;66.40;;;;;;5075162;28;20050;-69
2022/06/16 11:36:49;;;;;;;3.50;2.20;;;26.20;70.40;;;;;;5075253;28;20105;-68
2022/06/16 11:39:23;;;;;;;3.58;2.50;;;26.10;69.40;;;;;;5091972;28;20472;-68
2022/06/16 11:41:51;;;;;;;5.07;2.75;;;26.10;67.40;;;;;;5091994;28;20086;-69
2022/06/16 11:44:37;;;;;;;5.18;2.47;;;26.20;68.10;;;;;;5097119;28;20056;-70
2022/06/16 11:47:11;;;;;;;4.47;2.85;;;26.40;70.90;;;;;;5113826;28;20051;-69
2022/06/16 11:50:25;;;;;;;6.30;2.90;;;26.60;69.90;;;;;;5095313;28;20049;-70
2022/06/16 11:52:59;;;;;;;6.15;2.70;;;26.90;69.90;;;;;;5095301;28;20080;-69
2022/06/16 11:55:37;;;;;;;5.60;2.47;;;26.90;66.60;;;;;;5113433;28;20044;-70
2022/06/16 11:58:09;;;;;;;4.70;2.67;;;26.70;66.30;;;;;;5093331;28;20040;-69
2022/06/16 12:00:42;;;;;;;5.72;3.20;;;26.70;65.70;;;;;;5094427;28;20281;-69
2022/06/16 12:03:25;;;;;;;4.72;2.95;;;26.80;65.00;;;;;;5113341;28;20039;-68
2022/06/16 12:06:03;;;;;;;6.32;2.92;;;26.60;65.70;;;;;;5113196;28;20082;-69
2022/06/16 12:08:45;;;;;;;5.07;3.45;;;26.20;64.40;;;;;;5095069;28;20135;-67
2022/06/16 12:11:19;;;;;;;6.53;2.58;;;25.80;67.10;;;;;;5095035;28;20088;-68
2022/06/16 12:14:01;;;;;;;5.60;3.00;;;25.60;68.80;;;;;;5095083;28;20382;-67
2022/06/16 12:16:39;;;;;;;3.47;2.80;;;25.80;67.10;;;;;;5113331;28;20032;-69
2022/06/16 12:19:38;;;;;;;5.03;2.88;;;25.90;68.40;;;;;;5095158;28;20043;-69
2022/06/16 12:22:14;;;;;;;4.93;2.75;;;26.00;69.30;;;;;;5094827;28;20061;-68
2022/06/16 12:25:04;;;;;;;7.20;3.45;;;26.00;68.70;;;;;;5113212;28;20111;-67
2022/06/16 12:28:25;;;;;;;6.43;3.67;;;25.70;70.30;;;;;;5092556;28;20071;-67
2022/06/16 12:30:58;;;;;;;5.32;3.60;;;25.30;69.10;;;;;;4993897;28;20042;-67
2022/06/16 12:33:43;;;;;;;4.55;3.00;;;24.80;71.70;;;;;;5079545;28;20068;-68
2022/06/16 12:36:38;;;;;;;6.15;3.50;;;24.70;71.90;;;;;;5095042;28;20039;-68
2022/06/16 12:39:24;;;;;;;6.70;4.18;;;24.60;74.30;;;;;;5073909;28;20051;-68
2022/06/16 12:41:54;;;;;;;9.57;4.28;;;24.50;74.30;;;;;;5112953;28;20079;-68
2022/06/16 12:44:35;;;;;;;8.10;4.00;;;24.40;71.80;;;;;;5094684;28;20123;-67
2022/06/16 12:47:25;;;;;;;6.68;3.80;;;24.20;74.00;;;;;;5112929;28;20059;-68
2022/06/16 12:50:08;;;;;;;6.30;3.97;;;23.90;77.40;;;;;;5094601;28;20042;-68
2022/06/16 12:52:39;;;;;;;4.93;3.75;;;23.90;76.10;;;;;;5094850;28;20371;-68
2022/06/16 12:55:27;;;;;;;8.13;3.80;;;24.00;76.00;;;;;;5094614;28;20074;-68
2022/06/16 12:58:00;;;;;;;7.18;4.13;;;24.00;79.00;;;;;;5092413;28;20047;-68
2022/06/16 13:00:32;;;;;;;6.82;4.15;;;24.00;74.70;;;;;;5094809;28;20036;-68
2022/06/16 13:03:04;;;;;;;6.97;4.15;;;24.10;75.00;;;;;;5112921;28;20042;-68
2022/06/16 13:05:30;;;;;;;5.28;3.35;;;24.20;77.50;;;;;;5112734;28;20090;-68
2022/06/16 13:07:59;;;;;;;5.50;3.40;;;24.20;77.20;;;;;;5094452;28;20092;-68
2022/06/16 13:10:25;;;;;;;5.40;3.15;;;24.30;76.90;;;;;;5094468;28;20039;-68
2022/06/16 13:12:55;;;;;;;5.68;3.10;;;24.50;77.30;;;;;;5096816;28;20067;-68
2022/06/16 13:15:42;;;;;;;7.45;3.65;;;24.60;76.10;;;;;;5116583;28;20075;-68
2022/06/16 13:18:20;;;;;;;6.47;3.15;;;24.80;71.50;;;;;;5116563;28;20062;-67
2022/06/16 13:20:52;;;;;;;7.25;3.70;;;24.80;73.40;;;;;;5116315;28;20399;-67
2022/06/16 13:23:28;;;;;;;5.13;3.88;;;24.80;73.80;;;;;;5097977;28;20044;-68
2022/06/16 13:26:16;;;;;;;5.30;3.08;;;24.70;73.00;;;;;;5116121;28;20044;-67
2022/06/16 13:29:05;;;;;;;5.57;3.42;;;24.50;74.90;;;;;;5114012;28;20433;-67